Time;durP1;ratioP1;P1;durP2;ratioP2;P2;SDS_P1;SDS_P2;PMS_P1;PMS_P2;Temp;Humidity;BMP_temperature;BMP_pressure;BME280_temperature;BME280_humidity;BME280_pressure;Samples;Min_cycle;Max_cycle;Signal;HPM_P1;HPM_P2
2021/10/25 00:01:34;;;;;;;10.40;6.30;;;;;;;-2.08;76.30;98924.88;117343;1175;67619;-65
2021/10/25 00:04:05;;;;;;;10.90;7.20;;;;;;;-2.10;75.06;98930.86;117282;1176;69215;-64
2021/10/25 00:06:34;;;;;;;8.90;6.30;;;;;;;-2.13;75.14;98930.17;117383;1176;58796;-64
2021/10/25 00:09:05;;;;;;;10.80;6.40;;;;;;;-2.15;74.63;98928.46;117303;1176;58744;-66
2021/10/25 00:11:35;;;;;;;8.10;6.90;;;;;;;-2.17;74.27;98927.26;117272;1175;70542;-63
2021/10/25 00:14:05;;;;;;;10.50;6.10;;;;;;;-2.20;74.72;98928.27;117349;1175;68299;-63
2021/10/25 00:16:36;;;;;;;9.50;5.40;;;;;;;-2.20;73.92;98924.52;117125;1177;68455;-64
2021/10/25 00:19:06;;;;;;;12.40;8.10;;;;;;;-2.19;74.55;98923.66;117276;1167;58706;-64
2021/10/25 00:21:36;;;;;;;23.50;15.40;;;;;;;-2.19;76.32;98919.39;117325;1175;58692;-65
2021/10/25 00:24:07;;;;;;;14.50;10.10;;;;;;;-2.25;77.29;98921.77;117381;1176;70506;-64
2021/10/25 00:26:37;;;;;;;10.10;7.50;;;;;;;-2.28;75.78;98921.94;117305;1175;67684;-65
2021/10/25 00:29:07;;;;;;;8.90;6.20;;;;;;;-2.31;74.52;98919.73;117287;1175;68064;-64
2021/10/25 00:31:38;;;;;;;12.00;8.00;;;;;;;-2.35;73.85;98923.63;117321;1175;58728;-63
2021/10/25 00:34:08;;;;;;;11.20;7.60;;;;;;;-2.38;73.93;98925.33;117313;1176;58629;-64
2021/10/25 00:36:38;;;;;;;18.60;10.40;;;;;;;-2.41;74.30;98926.02;117313;1175;68654;-63
2021/10/25 00:39:10;;;;;;;10.80;7.40;;;;;;;-2.43;75.70;98924.11;117340;1176;67287;-65
2021/10/25 00:41:40;;;;;;;11.70;7.60;;;;;;;-2.45;74.49;98928.38;117289;1177;69848;-65
2021/10/25 00:44:10;;;;;;;17.00;11.40;;;;;;;-2.49;78.05;98929.21;117288;1175;58690;-65
2021/10/25 00:46:41;;;;;;;16.40;9.60;;;;;;;-2.50;78.38;98930.75;117285;1175;58697;-65
2021/10/25 00:49:11;;;;;;;9.80;6.90;;;;;;;-2.53;77.10;98924.61;117354;1175;70462;-65
2021/10/25 00:51:40;;;;;;;18.60;11.50;;;;;;;-2.57;77.76;98931.23;117324;1176;68388;-63
2021/10/25 00:54:11;;;;;;;11.40;7.00;;;;;;;-2.61;79.06;98936.17;117327;1176;68377;-63
2021/10/25 00:56:44;;;;;;;17.10;11.20;;;;;;;-2.63;78.94;98928.64;117263;1176;58738;-65
2021/10/25 00:59:15;;;;;;;14.90;9.30;;;;;;;-2.67;79.46;98921.13;117084;1175;58793;-63
2021/10/25 01:01:46;;;;;;;9.40;7.10;;;;;;;-2.68;78.69;98923.34;117333;1166;69367;-63
2021/10/25 01:04:19;;;;;;;10.90;7.80;;;;;;;-2.70;77.85;98918.55;117340;1175;67581;-64
2021/10/25 01:06:51;;;;;;;10.40;6.90;;;;;;;-2.70;76.69;98921.29;117243;1175;68405;-64
2021/10/25 01:09:22;;;;;;;21.70;12.80;;;;;;;-2.73;77.75;98923.66;117280;1176;58758;-64
2021/10/25 01:11:52;;;;;;;17.70;10.60;;;;;;;-2.75;80.17;98917.86;117330;1175;59196;-64
2021/10/25 01:14:22;;;;;;;14.70;9.30;;;;;;;-2.76;78.15;98911.88;117331;1171;70970;-64
2021/10/25 01:16:54;;;;;;;12.40;8.70;;;;;;;-2.75;79.83;98905.91;117270;1176;67458;-64
2021/10/25 01:19:24;;;;;;;16.00;11.20;;;;;;;-2.74;78.67;98910.17;117274;1175;69005;-64
2021/10/25 01:21:55;;;;;;;15.10;10.40;;;;;;;-2.77;80.31;98910.67;117302;1169;58809;-64
2021/10/25 01:24:26;;;;;;;16.10;9.60;;;;;;;-2.78;79.92;98906.05;116967;1177;58793;-63
2021/10/25 01:26:57;;;;;;;19.30;10.90;;;;;;;-2.78;77.97;98908.96;117317;1177;68761;-64
2021/10/25 01:29:27;;;;;;;16.80;9.20;;;;;;;-2.78;80.08;98907.94;117320;1177;68204;-64
2021/10/25 01:31:59;;;;;;;22.70;12.50;;;;;;;-2.76;78.28;98910.69;117332;1175;68377;-64
2021/10/25 01:34:30;;;;;;;20.70;13.00;;;;;;;-2.80;81.02;98912.03;117287;1176;58703;-63
2021/10/25 01:37:03;;;;;;;10.30;7.10;;;;;;;-2.84;80.73;98905.86;117316;1175;58727;-63
2021/10/25 01:39:34;;;;;;;10.20;7.20;;;;;;;-2.85;78.34;98900.58;116934;1177;69405;-64
2021/10/25 01:42:06;;;;;;;17.70;11.10;;;;;;;-2.88;78.40;98905.00;117263;1175;67503;-64
2021/10/25 01:44:39;;;;;;;11.90;7.50;;;;;;;-2.92;78.88;98902.75;117231;1175;68427;-64
2021/10/25 01:47:10;;;;;;;8.00;6.30;;;;;;;-2.95;77.81;98906.83;117336;1175;58755;-65
2021/10/25 01:49:41;;;;;;;11.90;8.60;;;;;;;-2.98;77.84;98904.27;117296;1171;58793;-65
2021/10/25 01:52:14;;;;;;;11.90;8.10;;;;;;;-3.01;78.11;98902.38;117310;1175;69738;-63
2021/10/25 01:54:52;;;;;;;11.80;7.50;;;;;;;-3.03;78.81;98898.27;117286;1175;68438;-63
2021/10/25 01:57:24;;;;;;;15.10;9.40;;;;;;;-3.06;78.27;98893.48;117284;1168;68988;-63
2021/10/25 01:59:57;;;;;;;11.40;7.30;;;;;;;-3.09;78.87;98900.30;117308;1175;58738;-63
2021/10/25 02:02:42;;;;;;;10.90;7.70;;;;;;;-3.11;76.71;98903.34;117326;1176;58774;-64
2021/10/25 02:05:31;;;;;;;13.50;9.80;;;;;;;-3.14;76.48;98903.50;117315;1175;71215;-64
2021/10/25 02:08:01;;;;;;;24.30;14.10;;;;;;;-3.20;77.58;98908.07;117292;1174;68364;-63
2021/10/25 02:10:45;;;;;;;23.90;12.90;;;;;;;-3.27;78.22;98913.65;117270;1177;69052;-63
2021/10/25 02:13:16;;;;;;;;;;;;;;;-3.33;77.59;98908.67;117291;1176;58704;-64
2021/10/25 02:15:46;;;;;;;;;;;;;;;-3.38;76.38;98910.00;117077;1177;58730;-64
2021/10/25 02:18:20;;;;;;;10.30;6.00;;;;;;;-3.42;76.13;98906.73;117243;1177;70368;-63
2021/10/25 02:20:50;;;;;;;22.10;12.50;;;;;;;-3.46;76.60;98905.18;117277;1176;68195;-63
2021/10/25 02:23:23;;;;;;;20.10;12.80;;;;;;;-3.51;79.27;98897.30;117179;1177;68418;-64
2021/10/25 02:25:57;;;;;;;22.60;12.00;;;;;;;-3.56;80.20;98894.86;117275;1177;58675;-63
2021/10/25 02:28:27;;;;;;;20.60;13.50;;;;;;;-3.60;80.89;98889.91;117347;1175;58743;-63
2021/10/25 02:30:58;;;;;;;21.30;13.80;;;;;;;-3.61;82.78;98889.21;116939;1177;70552;-64
2021/10/25 02:33:36;;;;;;;25.40;12.60;;;;;;;-3.60;83.26;98891.95;117284;1177;68395;-64
2021/10/25 02:36:07;;;;;;;10.30;7.30;;;;;;;-3.60;84.10;98892.48;117306;1175;69132;-63
2021/10/25 02:38:41;;;;;;;17.80;8.50;;;;;;;-3.53;79.71;98892.34;117348;1174;58725;-63
2021/10/25 02:41:11;;;;;;;;;;;;;;;-3.44;79.43;98889.51;117320;1175;58732;-63
2021/10/25 02:43:42;;;;;;;18.10;11.90;;;;;;;-3.35;80.66;98889.90;117340;1176;69499;-64
2021/10/25 02:46:13;;;;;;;21.40;13.70;;;;;;;-3.36;81.56;98893.31;117308;1175;68398;-63
2021/10/25 02:48:46;;;;;;;10.90;6.60;;;;;;;-3.36;82.23;98896.90;117254;1175;69255;-64
2021/10/25 02:51:18;;;;;;;15.50;8.70;;;;;;;-3.37;80.47;98892.63;117312;1176;59535;-64
2021/10/25 02:53:50;;;;;;;12.60;7.90;;;;;;;-3.41;80.36;98892.77;117302;1177;59488;-64
2021/10/25 02:56:21;;;;;;;21.20;12.20;;;;;;;-3.44;79.48;98896.66;117331;1177;70880;-64
2021/10/25 02:58:51;;;;;;;;;;;;;;;-3.49;81.33;98893.90;116896;1177;68477;-64
2021/10/25 03:01:22;;;;;;;15.60;10.30;;;;;;;-3.54;82.52;98897.11;117212;1166;69061;-64
2021/10/25 03:03:52;;;;;;;;;;;;;;;-3.53;80.92;98897.11;117337;1174;59490;-64
2021/10/25 03:06:24;;;;;;;14.50;9.70;;;;;;;-3.54;79.95;98889.77;117274;1175;59545;-64
2021/10/25 03:08:54;;;;;;;15.30;10.60;;;;;;;-3.56;80.54;98887.54;117306;1174;71428;-65
2021/10/25 03:11:24;;;;;;;13.90;8.30;;;;;;;-3.56;80.91;98884.30;117336;1177;68373;-64
2021/10/25 03:13:54;;;;;;;;;;;;;;;-3.53;80.81;98887.73;117288;1177;68292;-62
2021/10/25 03:16:28;;;;;;;11.50;6.80;;;;;;;-3.52;80.36;98888.25;117021;1176;59526;-63
2021/10/25 03:18:59;;;;;;;12.80;8.20;;;;;;;-3.50;81.21;98889.30;117263;1174;59561;-63
2021/10/25 03:21:29;;;;;;;17.80;9.10;;;;;;;-3.49;81.22;98889.30;117141;1175;71161;-63
2021/10/25 03:23:59;;;;;;;16.20;9.30;;;;;;;-3.47;81.28;98888.63;117262;1177;67646;-63
2021/10/25 03:26:30;;;;;;;13.60;9.50;;;;;;;-3.45;81.60;98890.02;117277;1174;69230;-64
2021/10/25 03:29:00;;;;;;;9.60;5.60;;;;;;;-3.49;81.58;98892.20;117223;1175;59906;-65
2021/10/25 03:31:30;;;;;;;17.20;8.90;;;;;;;-3.53;81.07;98892.51;117285;1176;59561;-64
2021/10/25 03:33:59;;;;;;;11.40;8.20;;;;;;;-3.57;81.50;98891.12;117203;1176;70715;-63
2021/10/25 03:36:34;;;;;;;5.90;4.50;;;;;;;-3.61;81.16;98891.09;117312;1174;67633;-64
2021/10/25 03:39:06;;;;;;;17.30;10.50;;;;;;;-3.65;80.42;98891.23;117312;1174;68196;-64
2021/10/25 03:41:46;;;;;;;6.50;4.50;;;;;;;-3.68;82.36;98890.02;117260;1176;59529;-63
2021/10/25 03:44:35;;;;;;;13.20;9.30;;;;;;;-3.70;81.85;98891.55;117266;1176;59487;-64
2021/10/25 03:47:29;;;;;;;17.20;10.40;;;;;;;-3.74;83.42;98889.80;117217;1174;70629;-63
2021/10/25 03:50:17;;;;;;;17.60;11.20;;;;;;;-3.77;83.16;98884.33;117218;1175;68496;-64
2021/10/25 04:29:00;;;;;;;11.40;7.30;;;;;;;-4.16;79.75;98890.14;117285;1174;70608;-64
2021/10/25 04:31:31;;;;;;;8.70;7.90;;;;;;;-4.16;79.46;98891.83;116950;1177;67779;-63
2021/10/25 04:34:01;;;;;;;7.70;5.70;;;;;;;-4.17;80.51;98887.91;117049;1177;69346;-63
2021/10/25 04:37:06;;;;;;;12.30;8.20;;;;;;;-4.17;80.07;98887.39;117075;1175;59525;-63
2021/10/25 04:39:50;;;;;;;7.00;4.70;;;;;;;-4.17;79.99;98891.48;117314;1175;59581;-63
2021/10/25 04:42:20;;;;;;;;;;;;;;;-4.12;78.34;98891.02;117322;1175;70584;-65
2021/10/25 04:44:50;;;;;;;9.10;5.90;;;;;;;-4.08;80.01;98890.36;117123;1177;67605;-64
2021/10/25 04:47:19;;;;;;;16.00;8.70;;;;;;;-4.03;79.63;98891.60;117282;1176;68651;-64
2021/10/25 04:49:49;;;;;;;16.40;10.70;;;;;;;-4.00;80.14;98889.94;117332;1176;59556;-62
2021/10/25 04:52:37;;;;;;;13.80;8.50;;;;;;;-3.99;80.30;98890.27;117329;1175;59522;-64
2021/10/25 04:55:07;;;;;;;11.70;7.40;;;;;;;-3.97;80.30;98892.86;117330;1175;71731;-64
2021/10/25 04:57:36;;;;;;;11.90;9.20;;;;;;;-3.97;80.55;98897.27;117175;1176;66963;-63
2021/10/25 05:00:08;;;;;;;7.80;4.90;;;;;;;-3.99;80.39;98899.13;117320;1174;68413;-63
2021/10/25 05:02:37;;;;;;;;;;;;;;;-3.99;79.96;98892.66;117331;1176;59529;-64
2021/10/25 05:05:08;;;;;;;6.70;5.30;;;;;;;-4.00;79.95;98893.84;117315;1175;59500;-64
2021/10/25 05:07:37;;;;;;;10.60;8.80;;;;;;;-4.00;80.27;98894.86;117304;1175;71962;-64
2021/10/25 05:10:09;;;;;;;10.80;7.20;;;;;;;-3.99;80.19;98899.46;117281;1176;68176;-63
2021/10/25 05:12:38;;;;;;;8.40;6.80;;;;;;;-3.99;79.51;98901.68;117134;1177;68692;-64
2021/10/25 05:15:08;;;;;;;22.20;14.20;;;;;;;-3.97;80.88;98903.23;117263;1175;59522;-65
2021/10/25 05:17:37;;;;;;;19.40;12.60;;;;;;;-3.97;82.58;98908.18;117212;1176;59542;-63
2021/10/25 05:20:08;;;;;;;9.20;7.60;;;;;;;-3.93;81.96;98910.43;117227;1175;71898;-65
2021/10/25 05:22:42;;;;;;;9.70;7.20;;;;;;;-3.89;80.77;98908.92;117172;1175;68217;-62
2021/10/25 05:25:12;;;;;;;7.90;6.80;;;;;;;-3.85;80.33;98912.04;117055;1177;69203;-63
2021/10/25 05:27:44;;;;;;;5.40;4.10;;;;;;;-3.78;79.95;98914.48;117132;1175;59516;-64
2021/10/25 05:30:13;;;;;;;26.90;17.10;;;;;;;-3.73;80.66;98914.52;116851;1177;59471;-63
2021/10/25 05:32:48;;;;;;;30.50;18.60;;;;;;;-3.69;80.59;98915.56;117191;1175;71954;-64
2021/10/25 05:35:18;;;;;;;18.70;11.10;;;;;;;-3.65;79.93;98916.27;117228;1175;67865;-63
2021/10/25 05:37:48;;;;;;;17.80;11.50;;;;;;;-3.60;78.98;98918.54;117193;1177;68649;-65
2021/10/25 05:40:17;;;;;;;23.80;14.70;;;;;;;-3.54;78.83;98921.82;117035;1177;59596;-63
2021/10/25 05:42:51;;;;;;;16.10;10.50;;;;;;;-3.48;78.64;98924.25;117185;1177;59599;-63
2021/10/25 05:45:21;;;;;;;15.00;10.30;;;;;;;-3.40;78.19;98927.88;117136;1177;71489;-63
2021/10/25 05:47:50;;;;;;;10.30;8.50;;;;;;;-3.32;78.06;98929.30;117148;1176;68525;-63
2021/10/25 05:50:19;;;;;;;10.70;7.50;;;;;;;-3.22;78.20;98931.58;117173;1177;68620;-63
2021/10/25 05:52:50;;;;;;;12.50;8.00;;;;;;;-3.14;78.43;98930.80;117182;1170;59583;-65
2021/10/25 05:55:24;;;;;;;15.60;11.20;;;;;;;-3.03;78.02;98937.34;116985;1177;59522;-63
2021/10/25 05:57:55;;;;;;;25.50;16.50;;;;;;;-2.91;77.78;98936.39;117183;1177;71736;-63
2021/10/25 06:00:28;;;;;;;14.50;10.10;;;;;;;-2.80;79.61;98938.64;117399;1175;68403;-63
2021/10/25 06:02:58;;;;;;;20.20;13.70;;;;;;;-2.68;78.68;98941.77;116810;1177;69195;-65
2021/10/25 06:05:30;;;;;;;;;;;;;;;-2.53;78.47;98938.77;117252;1177;59531;-63
2021/10/25 06:08:00;;;;;;;37.50;22.50;;;;;;;-2.38;78.39;98940.02;117163;1177;59494;-63
2021/10/25 06:10:33;;;;;;;28.00;16.60;;;;;;;-2.20;77.78;98941.09;117268;1176;71291;-64
2021/10/25 06:13:07;;;;;;;15.10;9.80;;;;;;;-1.91;77.18;98941.82;117281;1177;68460;-63
2021/10/25 06:15:53;;;;;;;40.20;24.70;;;;;;;-1.29;76.89;98945.10;116960;1177;68948;-64
2021/10/25 06:18:23;;;;;;;38.50;25.50;;;;;;;-0.42;75.99;98939.38;117226;1176;59519;-64
2021/10/25 06:20:53;;;;;;;29.80;19.70;;;;;;;0.38;75.22;98938.90;117172;1175;59536;-65
2021/10/25 06:23:22;;;;;;;24.10;17.70;;;;;;;1.05;74.39;98941.38;117256;1176;72099;-63
2021/10/25 06:25:52;;;;;;;34.50;24.20;;;;;;;1.62;73.82;98945.38;117244;1176;68807;-66
2021/10/25 06:28:25;;;;;;;22.60;15.50;;;;;;;2.23;72.61;98943.50;117196;1176;69798;-65
2021/10/25 06:31:03;;;;;;;21.80;16.40;;;;;;;2.88;71.93;98946.59;117173;1177;59552;-63
2021/10/25 06:33:53;;;;;;;28.80;20.60;;;;;;;3.54;69.59;98945.70;116910;1176;59530;-66
2021/10/25 06:36:47;;;;;;;38.60;27.40;;;;;;;4.11;65.85;98944.31;117168;1176;71381;-64
2021/10/25 06:39:42;;;;;;;22.50;14.70;;;;;;;4.50;59.51;98944.45;117228;1175;67860;-62
2021/10/25 06:42:12;;;;;;;34.50;24.10;;;;;;;5.16;62.19;98947.45;117247;1175;68595;-64
2021/10/25 06:44:59;;;;;;;18.10;13.30;;;;;;;5.75;60.83;98942.17;117268;1175;59548;-64
2021/10/25 06:47:31;;;;;;;25.30;19.80;;;;;;;6.40;60.86;98942.31;117118;1175;59513;-64
2021/10/25 06:50:06;;;;;;;20.50;15.90;;;;;;;6.93;57.85;98944.56;117174;1174;70847;-64
2021/10/25 06:52:48;;;;;;;15.70;12.00;;;;;;;7.47;56.04;98945.48;117221;1174;67626;-64
2021/10/25 06:55:18;;;;;;;22.70;17.90;;;;;;;7.99;56.40;98939.56;117046;1175;69842;-65
2021/10/25 06:58:10;;;;;;;17.80;13.20;;;;;;;8.26;48.15;98942.16;116906;1177;59558;-64
2021/10/25 07:00:43;;;;;;;14.10;11.30;;;;;;;8.67;49.76;98943.17;117009;1176;59603;-65
2021/10/25 07:03:14;;;;;;;13.40;9.90;;;;;;;9.04;48.91;98943.16;117089;1177;70452;-64
2021/10/25 07:05:43;;;;;;;;;;;;;;;9.54;46.81;98943.27;117281;1176;67664;-65
2021/10/25 07:08:14;;;;;;;16.70;13.10;;;;;;;10.07;47.87;98936.34;117238;1174;69237;-65
2021/10/25 07:10:46;;;;;;;17.40;13.80;;;;;;;10.42;43.60;98937.00;117220;1176;59462;-64
2021/10/25 07:13:20;;;;;;;12.60;9.70;;;;;;;10.66;43.35;98932.86;117230;1176;59545;-64
2021/10/25 07:15:57;;;;;;;10.70;8.10;;;;;;;11.24;45.48;98930.13;117273;1174;70997;-64
2021/10/25 07:18:43;;;;;;;10.50;7.50;;;;;;;11.91;43.86;98925.21;117254;1175;69007;-64
2021/10/25 07:21:36;;;;;;;15.40;10.90;;;;;;;12.66;45.18;98925.23;117264;1171;69055;-64
2021/10/25 07:27:22;;;;;;;11.00;8.70;;;;;;;13.81;39.24;98922.08;117266;1174;59539;-64
2021/10/25 08:04:39;;;;;;;7.80;5.70;;;;;;;15.19;32.40;98911.03;117166;1176;69387;-65
2021/10/25 08:07:19;;;;;;;7.70;5.30;;;;;;;15.80;32.56;98907.17;117138;1175;59564;-65
2021/10/25 08:10:52;;;;;;;8.60;5.90;;;;;;;16.14;30.91;98905.59;116962;1177;59523;-67
2021/10/25 08:13:03;;;;;;;9.90;7.30;;;;;;;16.66;31.13;98900.98;117036;1176;71242;-65
2021/10/25 08:15:38;;;;;;;10.90;7.70;;;;;;;15.73;30.60;98902.82;117193;1175;68829;-65
2021/10/25 08:18:30;;;;;;;6.50;5.10;;;;;;;15.68;31.55;98903.95;117148;1177;69234;-65
2021/10/25 08:20:59;;;;;;;7.40;6.10;;;;;;;16.24;29.87;98903.70;117137;1176;59580;-67
2021/10/25 08:23:29;;;;;;;6.10;4.70;;;;;;;15.52;30.59;98898.92;116812;1177;59522;-65
2021/10/25 08:26:01;;;;;;;7.00;5.30;;;;;;;16.06;30.87;98899.36;117122;1174;71792;-66
2021/10/25 08:28:37;;;;;;;8.40;6.20;;;;;;;15.57;30.29;98894.15;116934;1176;69342;-66
2021/10/25 08:31:09;;;;;;;6.20;5.10;;;;;;;15.83;30.88;98889.90;117067;1175;69031;-66
2021/10/25 08:33:47;;;;;;;9.00;6.70;;;;;;;15.51;31.27;98891.72;117149;1175;59564;-67
2021/10/25 08:36:24;;;;;;;10.40;6.60;;;;;;;16.10;31.25;98890.81;117143;1175;59516;-64
2021/10/25 08:42:04;;;;;;;7.00;5.10;;;;;;;17.88;28.50;98887.98;117119;1177;68762;-65
2021/10/25 08:44:34;;;;;;;6.90;5.00;;;;;;;18.33;27.09;98895.13;117098;1176;68457;-66
2021/10/25 08:47:07;;;;;;;6.90;4.80;;;;;;;18.65;27.27;98891.79;117118;1175;59506;-66
2021/10/25 08:49:37;;;;;;;7.70;6.30;;;;;;;19.22;26.16;98888.11;117212;1175;59965;-66
2021/10/25 08:52:06;;;;;;;;;;;;;;;18.94;26.28;98891.50;117181;1175;70589;-64
2021/10/25 08:54:36;;;;;;;5.80;4.80;;;;;;;19.61;25.53;98888.67;116934;1177;69070;-65
2021/10/25 08:57:06;;;;;;;7.20;5.80;;;;;;;20.12;24.95;98886.42;117123;1177;69616;-66
2021/10/25 08:59:36;;;;;;;5.30;4.80;;;;;;;20.52;23.88;98887.50;116829;1177;59555;-65
2021/10/25 09:02:09;;;;;;;7.90;5.70;;;;;;;20.29;23.92;98883.02;117143;1175;59520;-63
2021/10/25 09:05:05;;;;;;;7.70;5.30;;;;;;;18.12;25.43;98885.85;117252;1177;70348;-66
2021/10/25 09:07:53;;;;;;;8.40;5.90;;;;;;;19.02;25.22;98884.48;116880;1176;68656;-65
2021/10/25 09:10:40;;;;;;;7.30;5.70;;;;;;;19.04;25.26;98884.33;116961;1177;68399;-65
2021/10/25 09:13:26;;;;;;;7.30;5.20;;;;;;;19.70;24.63;98882.17;117123;1175;59609;-65
2021/10/25 09:15:58;;;;;;;7.90;5.40;;;;;;;19.92;23.82;98881.70;116827;1177;59583;-64
2021/10/25 09:18:51;;;;;;;6.90;4.50;;;;;;;20.01;23.58;98884.29;116941;1177;72030;-66
2021/10/25 09:21:32;;;;;;;6.20;4.80;;;;;;;20.00;23.77;98883.94;117143;1176;68391;-65
2021/10/25 09:24:15;;;;;;;5.60;3.80;;;;;;;20.01;23.43;98885.71;117061;1177;68575;-66
2021/10/25 09:26:55;;;;;;;7.90;6.10;;;;;;;20.63;22.77;98887.40;117278;1175;59577;-65
2021/10/25 09:29:28;;;;;;;6.80;5.10;;;;;;;19.13;24.13;98886.38;117226;1177;59580;-65
2021/10/25 09:32:05;;;;;;;5.00;4.10;;;;;;;19.14;24.18;98884.89;117279;1174;70379;-67
2021/10/25 09:34:44;;;;;;;4.70;3.80;;;;;;;20.01;23.71;98879.67;117156;1174;67606;-67
2021/10/25 09:37:40;;;;;;;4.70;3.60;;;;;;;21.58;22.81;98880.11;117273;1174;68510;-67
2021/10/25 09:40:23;;;;;;;4.60;3.60;;;;;;;23.04;21.72;98878.81;117193;1174;59500;-66
2021/10/25 09:43:08;;;;;;;10.20;5.90;;;;;;;24.37;19.66;98873.61;117189;1174;59532;-66
2021/10/25 09:45:50;;;;;;;7.10;4.60;;;;;;;25.25;18.46;98867.96;117085;1174;71638;-66
2021/10/25 09:51:29;;;;;;;6.10;4.70;;;;;;;24.88;17.77;98860.09;117391;1175;69963;-64
2021/10/25 09:54:22;;;;;;;5.70;3.70;;;;;;;24.97;18.14;98861.46;117413;1174;59532;-67
2021/10/25 09:57:08;;;;;;;5.40;4.00;;;;;;;25.33;17.79;98855.15;117337;1174;59586;-68
2021/10/25 10:00:14;;;;;;;7.80;5.10;;;;;;;25.74;17.24;98845.23;117074;1175;71268;-67
2021/10/25 10:02:47;;;;;;;5.90;3.70;;;;;;;25.34;17.09;98841.96;117336;1175;69217;-66
2021/10/25 10:05:50;;;;;;;6.30;4.50;;;;;;;25.76;16.55;98836.90;117172;1175;69203;-66
2021/10/25 10:08:25;;;;;;;5.70;4.10;;;;;;;25.43;16.90;98838.54;117090;1176;59590;-66
2021/10/25 10:10:55;;;;;;;;;;;;;;;25.92;17.56;98838.91;117185;1174;59497;-67
2021/10/25 10:13:26;;;;;;;;;;;;;;;26.66;16.70;98841.73;117274;1175;70931;-66
2021/10/25 10:16:07;;;;;;;4.70;3.30;;;;;;;27.17;16.44;98839.56;116810;1177;68120;-68
2021/10/25 10:18:52;;;;;;;5.40;4.10;;;;;;;27.57;15.74;98833.59;117235;1176;68807;-68
2021/10/25 10:21:47;;;;;;;5.30;3.30;;;;;;;27.91;15.39;98828.58;117261;1177;59542;-67
2021/10/25 10:24:30;;;;;;;3.80;3.00;;;;;;;28.05;15.32;98824.52;117229;1175;59548;-66
2021/10/25 10:27:07;;;;;;;6.30;4.40;;;;;;;28.33;15.14;98821.44;117103;1177;71041;-67
2021/10/25 10:29:41;;;;;;;5.10;4.20;;;;;;;27.39;14.71;98817.38;117143;1176;68065;-66
2021/10/25 10:32:15;;;;;;;4.40;2.80;;;;;;;27.50;15.17;98815.48;117088;1175;69809;-66
2021/10/25 10:35:16;;;;;;;6.50;3.30;;;;;;;27.92;14.83;98813.48;117109;1175;59503;-66
2021/10/25 10:38:10;;;;;;;5.10;3.90;;;;;;;26.26;15.47;98811.82;117088;1176;59516;-66
2021/10/25 10:40:52;;;;;;;5.20;3.80;;;;;;;25.72;16.35;98804.68;116979;1177;72111;-67
2021/10/25 10:43:41;;;;;;;7.70;4.20;;;;;;;25.47;16.10;98802.05;116964;1177;67618;-67
2021/10/25 10:46:18;;;;;;;6.50;4.30;;;;;;;23.92;17.24;98796.68;117052;1177;68270;-66
2021/10/25 10:48:56;;;;;;;6.10;3.80;;;;;;;23.39;17.90;98794.75;117293;1174;59934;-66
2021/10/25 10:51:32;;;;;;;7.30;4.20;;;;;;;24.43;17.88;98794.92;117056;1175;59565;-67
2021/10/25 10:54:12;;;;;;;5.70;3.50;;;;;;;25.23;17.00;98792.21;117257;1176;70333;-67
2021/10/25 10:56:54;;;;;;;;;;;;;;;25.89;16.63;98790.34;117120;1175;68256;-66
2021/10/25 10:59:36;;;;;;;5.00;3.40;;;;;;;26.56;16.16;98793.60;117245;1176;68426;-65
2021/10/25 11:02:16;;;;;;;5.10;3.10;;;;;;;25.63;15.52;98784.23;117131;1177;59519;-68
2021/10/25 11:04:46;;;;;;;4.40;3.60;;;;;;;24.67;16.84;98788.91;117335;1174;59595;-68
2021/10/25 11:07:14;;;;;;;5.60;3.20;;;;;;;23.35;17.66;98788.12;117323;1175;71705;-65
2021/10/25 11:09:45;;;;;;;3.50;2.70;;;;;;;24.62;17.03;98780.20;117082;1177;68641;-65
2021/10/25 11:12:40;;;;;;;6.30;3.70;;;;;;;25.47;16.41;98775.75;117158;1176;68684;-65
2021/10/25 11:15:13;;;;;;;4.10;3.00;;;;;;;25.89;15.65;98775.13;117285;1174;59540;-65
2021/10/25 11:17:42;;;;;;;4.90;2.90;;;;;;;26.68;15.82;98771.69;117037;1167;59539;-66
2021/10/25 11:20:11;;;;;;;6.00;3.70;;;;;;;27.22;15.12;98766.13;117201;1176;71442;-68
2021/10/25 11:22:40;;;;;;;4.50;3.10;;;;;;;27.66;14.93;98764.63;117299;1176;67628;-68
2021/10/25 11:25:12;;;;;;;5.60;3.90;;;;;;;27.68;14.86;98760.89;116987;1177;68321;-68
2021/10/25 11:27:42;;;;;;;6.50;4.70;;;;;;;27.75;14.62;98760.86;117252;1175;59529;-67
2021/10/25 11:30:17;;;;;;;3.80;3.10;;;;;;;26.46;15.11;98759.41;117348;1175;59529;-66
2021/10/25 11:32:48;;;;;;;7.20;5.20;;;;;;;27.07;15.40;98748.00;117107;1176;71337;-67
2021/10/25 11:35:19;;;;;;;7.90;5.20;;;;;;;27.47;15.40;98738.59;117240;1175;68397;-66
2021/10/25 11:37:59;;;;;;;7.20;5.20;;;;;;;27.46;14.73;98733.88;117389;1175;69794;-66
2021/10/25 11:40:29;;;;;;;7.90;5.50;;;;;;;27.64;14.98;98733.77;117268;1175;59942;-66
2021/10/25 11:43:01;;;;;;;9.00;6.40;;;;;;;27.72;14.67;98730.15;117175;1175;59548;-69
2021/10/25 11:45:33;;;;;;;6.20;4.30;;;;;;;27.85;14.22;98726.94;117402;1175;70801;-65
2021/10/25 11:48:02;;;;;;;7.30;5.10;;;;;;;28.33;14.69;98722.29;117242;1175;68460;-66
2021/10/25 11:50:32;;;;;;;7.80;5.60;;;;;;;28.60;14.64;98723.38;117188;1175;67607;-66
2021/10/25 11:53:09;;;;;;;7.30;5.20;;;;;;;26.68;15.28;98721.45;117234;1177;59568;-66
2021/10/25 11:55:40;;;;;;;9.40;7.30;;;;;;;27.62;14.99;98717.71;117406;1171;59907;-67
2021/10/25 11:58:14;;;;;;;10.00;6.80;;;;;;;27.33;15.01;98710.91;117257;1175;71375;-66
2021/10/25 12:00:48;;;;;;;8.90;5.90;;;;;;;25.59;16.12;98711.03;117175;1176;68977;-69
2021/10/25 12:03:28;;;;;;;9.20;6.70;;;;;;;25.15;16.55;98710.04;117272;1175;69259;-69
2021/10/25 12:05:58;;;;;;;9.70;6.20;;;;;;;25.17;16.76;98701.23;117179;1177;59535;-70
2021/10/25 12:08:27;;;;;;;;;;;;;;;26.08;16.42;98702.31;117426;1177;59538;-66
2021/10/25 12:10:58;;;;;;;6.10;3.60;;;;;;;26.22;15.44;98696.36;117412;1175;71663;-66
2021/10/25 12:13:27;;;;;;;6.80;5.50;;;;;;;26.84;15.36;98690.52;117140;1177;69000;-65
2021/10/25 12:16:03;;;;;;;9.60;6.10;;;;;;;26.57;15.24;98690.70;117303;1175;69844;-66
2021/10/25 12:18:33;;;;;;;7.10;5.30;;;;;;;26.31;15.64;98689.64;117216;1175;59513;-66
2021/10/25 12:21:14;;;;;;;7.80;6.00;;;;;;;26.36;15.82;98689.67;117280;1176;59529;-68
2021/10/25 12:23:47;;;;;;;8.70;5.20;;;;;;;25.67;16.13;98686.84;117269;1176;71415;-66
2021/10/25 12:26:16;;;;;;;9.70;5.40;;;;;;;26.34;16.13;98686.28;117280;1175;68811;-66
2021/10/25 12:28:45;;;;;;;8.70;6.60;;;;;;;27.07;15.83;98681.82;116855;1171;69135;-68
2021/10/25 12:31:18;;;;;;;9.50;7.20;;;;;;;27.73;15.27;98683.64;117236;1177;59529;-65
2021/10/25 12:33:51;;;;;;;8.70;6.30;;;;;;;27.23;14.86;98680.67;117263;1174;59591;-67
2021/10/25 12:36:22;;;;;;;8.70;5.20;;;;;;;27.09;15.10;98675.73;117448;1177;71351;-67
2021/10/25 12:38:54;;;;;;;8.30;6.30;;;;;;;26.83;15.24;98669.14;117420;1166;68414;-66
2021/10/25 12:41:24;;;;;;;6.30;4.50;;;;;;;27.46;15.15;98667.74;117357;1175;69082;-66
2021/10/25 12:43:59;;;;;;;8.40;5.10;;;;;;;28.03;15.19;98661.75;117395;1174;59503;-67
2021/10/25 12:46:33;;;;;;;7.40;5.20;;;;;;;28.49;14.75;98652.77;117381;1174;59504;-70
2021/10/25 12:49:04;;;;;;;7.70;5.60;;;;;;;27.63;14.39;98648.93;117216;1175;71583;-68
2021/10/25 12:51:41;;;;;;;9.00;6.50;;;;;;;27.56;15.05;98646.38;117347;1174;68372;-67
2021/10/25 12:54:12;;;;;;;8.10;5.40;;;;;;;27.90;14.77;98645.50;117361;1175;68712;-68
2021/10/25 12:56:44;;;;;;;9.00;7.20;;;;;;;27.92;14.12;98647.10;117383;1174;59532;-68
2021/10/25 12:59:15;;;;;;;7.20;4.70;;;;;;;28.30;14.24;98641.67;117400;1174;59531;-68
2021/10/25 13:01:56;;;;;;;9.60;7.40;;;;;;;27.92;14.24;98644.08;117359;1174;71816;-67
2021/10/25 13:04:27;;;;;;;7.10;4.90;;;;;;;27.29;14.76;98636.73;117252;1175;68142;-65
2021/10/25 13:06:56;;;;;;;8.00;5.80;;;;;;;27.85;14.85;98639.22;117268;1175;69201;-66
2021/10/25 13:09:25;;;;;;;;;;;;;;;28.06;14.19;98637.14;117343;1174;59518;-67
2021/10/25 13:11:55;;;;;;;8.10;6.60;;;;;;;28.48;14.08;98634.38;117448;1175;59539;-66
2021/10/25 13:14:23;;;;;;;;;;;;;;;28.33;13.68;98633.17;117341;1175;71035;-67
2021/10/25 13:16:53;;;;;;;9.10;5.20;;;;;;;27.92;14.01;98634.52;117469;1174;67953;-66
2021/10/25 13:19:22;;;;;;;4.80;4.20;;;;;;;28.36;14.16;98624.61;117379;1174;69835;-65